createdAt,value
2023-04-20T00:02:04.149Z,9.02
2023-04-20T00:04:33.183Z,10.50
2023-04-20T00:07:00.958Z,9.52
2023-04-20T00:09:29.291Z,11.88
2023-04-20T00:11:57.160Z,7.85
2023-04-20T00:14:25.698Z,10.77
2023-04-20T00:16:53.639Z,11.60
2023-04-20T00:19:22.569Z,8.82
2023-04-20T00:21:50.495Z,12.30
2023-04-20T00:24:18.916Z,13.10
2023-04-20T00:26:46.670Z,10.13
2023-04-20T00:29:15.095Z,13.68
2023-04-20T00:31:43.475Z,15.55
2023-04-20T00:34:11.771Z,10.05
2023-04-20T00:36:40.017Z,12.52
2023-04-20T00:39:08.249Z,13.02
2023-04-20T00:41:36.378Z,10.48
2023-04-20T00:44:04.924Z,17.35
2023-04-20T00:46:34.774Z,12.75
2023-04-20T00:49:03.162Z,13.70
2023-04-20T00:51:32.139Z,11.38
2023-04-20T00:54:01.143Z,16.08
2023-04-20T00:56:29.497Z,16.60
2023-04-20T00:58:58.071Z,17.25
2023-04-20T01:01:27.280Z,17.08
2023-04-20T01:03:55.924Z,21.20
2023-04-20T01:06:24.106Z,17.35
2023-04-20T01:08:55.414Z,11.30
2023-04-20T01:11:23.224Z,11.55
2023-04-20T01:13:51.574Z,10.82
2023-04-20T01:16:19.531Z,11.18
2023-04-20T01:18:49.484Z,16.92
2023-04-20T01:21:20.776Z,12.00
2023-04-20T01:23:49.278Z,18.73
2023-04-20T01:26:19.317Z,12.65
2023-04-20T01:28:47.843Z,16.02
2023-04-20T01:31:17.182Z,13.52
2023-04-20T01:33:45.519Z,10.82
2023-04-20T01:36:14.211Z,8.82
2023-04-20T01:38:42.540Z,7.57
2023-04-20T01:41:11.390Z,8.25
2023-04-20T01:43:40.613Z,8.60
2023-04-20T01:46:08.588Z,6.22
2023-04-20T01:48:36.844Z,11.32
2023-04-20T01:51:04.925Z,7.45
2023-04-20T01:53:34.256Z,8.05
2023-04-20T01:56:02.096Z,9.65
2023-04-20T01:58:30.702Z,9.77
2023-04-20T02:00:58.786Z,7.88
2023-04-20T02:03:28.586Z,9.45
2023-04-20T02:05:56.619Z,6.10
2023-04-20T02:08:28.154Z,5.85
2023-04-20T02:10:55.992Z,6.95
2023-04-20T02:13:24.628Z,7.70
2023-04-20T02:15:52.616Z,5.20
2023-04-20T02:18:23.380Z,8.05
2023-04-20T02:20:52.770Z,4.50
2023-04-20T02:23:21.321Z,6.15
2023-04-20T02:25:49.132Z,4.25
2023-04-20T02:28:17.386Z,4.63
2023-04-20T02:30:45.355Z,3.78
2023-04-20T02:33:13.561Z,5.55
2023-04-20T02:35:41.375Z,4.03
2023-04-20T02:38:12.422Z,9.50
2023-04-20T02:40:40.686Z,4.55
2023-04-20T02:43:09.637Z,4.75
2023-04-20T02:45:38.978Z,5.30
2023-04-20T02:48:08.690Z,6.03
2023-04-20T02:50:38.685Z,3.72
2023-04-20T02:53:19.708Z,6.50
2023-04-20T02:55:53.510Z,6.30
2023-04-20T02:58:33.861Z,8.88
2023-04-20T03:01:18.196Z,8.00
2023-04-20T03:03:49.851Z,5.88
2023-04-20T03:06:18.163Z,7.55
2023-04-20T03:08:52.795Z,8.18
2023-04-20T03:11:46.127Z,6.38
2023-04-20T03:14:23.608Z,7.28
2023-04-20T03:16:51.871Z,6.15
2023-04-20T03:19:20.183Z,7.68
2023-04-20T03:21:48.111Z,8.05
2023-04-20T03:24:17.530Z,4.68
2023-04-20T03:26:45.488Z,5.90
2023-04-20T03:29:19.930Z,7.40
2023-04-20T03:31:48.202Z,7.45
2023-04-20T03:34:16.653Z,5.35
2023-04-20T03:36:45.527Z,5.55
2023-04-20T03:39:13.821Z,6.05
2023-04-20T03:41:41.606Z,5.97
2023-04-20T03:44:10.125Z,10.68
2023-04-20T03:46:38.556Z,7.85
2023-04-20T03:49:07.063Z,12.93
2023-04-20T03:51:35.002Z,9.73
2023-04-20T03:54:03.185Z,9.40
2023-04-20T03:56:31.367Z,10.00
2023-04-20T03:59:00.099Z,9.40
2023-04-20T04:01:28.754Z,7.93
2023-04-20T04:03:57.540Z,9.93
2023-04-20T04:06:25.895Z,19.77
2023-04-20T04:08:54.122Z,6.72
2023-04-20T04:11:21.980Z,14.20
2023-04-20T04:13:50.495Z,8.23
2023-04-20T04:16:18.484Z,7.55
2023-04-20T04:18:47.832Z,6.93
2023-04-20T04:21:15.946Z,6.07
2023-04-20T04:23:49.880Z,6.63
2023-04-20T04:26:40.665Z,10.70
2023-04-20T04:29:10.751Z,8.20
2023-04-20T04:31:38.649Z,13.00
2023-04-20T04:34:14.497Z,9.10
2023-04-20T04:36:48.931Z,7.72
2023-04-20T04:39:21.490Z,11.13
2023-04-20T04:41:57.982Z,9.82
2023-04-20T04:44:34.329Z,14.50
2023-04-20T04:47:05.835Z,9.10
2023-04-20T04:49:36.042Z,10.23
2023-04-20T04:52:04.132Z,8.55
2023-04-20T04:54:32.372Z,9.40
2023-04-20T04:57:00.284Z,7.60
2023-04-20T04:59:29.181Z,6.35
2023-04-20T05:01:57.025Z,7.30
2023-04-20T05:04:25.949Z,8.10
2023-04-20T05:06:53.872Z,8.15
2023-04-20T05:09:22.241Z,6.95
2023-04-20T05:11:50.074Z,10.50
2023-04-20T05:14:18.406Z,6.68
2023-04-20T05:16:46.294Z,10.10
2023-04-20T05:19:14.647Z,8.57
2023-04-20T05:21:42.505Z,13.27
2023-04-20T05:24:11.424Z,10.68
2023-04-20T05:26:39.373Z,9.27
2023-04-20T05:29:07.659Z,8.00
2023-04-20T05:31:35.492Z,6.65
2023-04-20T05:34:03.929Z,8.00
2023-04-20T05:36:33.836Z,10.68
2023-04-20T05:39:02.224Z,8.88
2023-04-20T05:41:30.110Z,9.13
2023-04-20T05:43:58.555Z,9.68
2023-04-20T05:46:26.346Z,11.02
2023-04-20T05:48:54.599Z,7.88
2023-04-20T05:51:22.852Z,7.78
2023-04-20T05:53:51.132Z,9.88
2023-04-20T05:56:19.032Z,6.47
2023-04-20T05:58:47.705Z,10.43
2023-04-20T06:01:15.689Z,8.35
2023-04-20T06:03:44.079Z,9.35
2023-04-20T06:06:12.425Z,11.43
2023-04-20T06:08:40.868Z,15.43
2023-04-20T06:11:08.797Z,10.63
2023-04-20T06:13:37.130Z,14.18
2023-04-20T06:16:09.876Z,22.30
2023-04-20T06:18:38.238Z,15.25
2023-04-20T06:21:06.549Z,13.68
2023-04-20T06:23:34.860Z,17.17
2023-04-20T06:26:02.762Z,14.68
2023-04-20T06:28:31.016Z,21.70
2023-04-20T06:30:58.975Z,18.08
2023-04-20T06:33:27.314Z,17.45
2023-04-20T06:35:56.842Z,16.17
2023-04-20T06:38:28.438Z,19.77
2023-04-20T06:40:59.113Z,18.15
2023-04-20T06:43:27.367Z,11.98
2023-04-20T06:45:55.532Z,12.10
2023-04-20T06:48:32.321Z,14.85
2023-04-20T06:51:02.064Z,11.52
2023-04-20T06:53:30.330Z,11.88
2023-04-20T06:55:58.189Z,14.35
2023-04-20T06:58:26.473Z,13.52
2023-04-20T07:00:54.401Z,16.02
2023-04-20T07:03:22.807Z,14.85
2023-04-20T07:05:51.176Z,21.60
2023-04-20T07:08:19.577Z,13.13
2023-04-20T07:10:47.538Z,16.10
2023-04-20T07:13:16.075Z,33.33
2023-04-20T07:15:46.296Z,20.75
2023-04-20T07:18:14.510Z,20.90
2023-04-20T07:20:42.673Z,21.13
2023-04-20T07:23:11.136Z,21.20
2023-04-20T07:25:39.229Z,20.85
2023-04-20T07:28:07.701Z,24.98
2023-04-20T07:30:36.087Z,23.33
2023-04-20T07:33:04.492Z,20.55
2023-04-20T07:35:32.506Z,25.65
2023-04-20T07:38:01.073Z,26.38
2023-04-20T07:40:29.230Z,24.77
2023-04-20T07:42:57.508Z,30.05
2023-04-20T07:45:25.949Z,19.67
2023-04-20T07:47:56.118Z,22.42
2023-04-20T07:50:24.419Z,23.90
2023-04-20T07:52:52.589Z,24.33
2023-04-20T07:55:20.630Z,25.90
2023-04-20T07:57:49.173Z,22.17
2023-04-20T08:00:18.471Z,22.42
2023-04-20T08:02:47.774Z,25.45
2023-04-20T08:05:16.933Z,24.15
2023-04-20T08:07:45.685Z,23.67
2023-04-20T08:10:14.142Z,17.75
2023-04-20T08:12:42.880Z,15.13
2023-04-20T08:15:11.476Z,13.40
2023-04-20T08:17:39.944Z,14.13
2023-04-20T08:20:08.579Z,12.88
2023-04-20T08:22:36.892Z,15.75
2023-04-20T08:25:05.522Z,11.50
2023-04-20T08:27:36.276Z,12.75
2023-04-20T08:30:04.753Z,12.73
2023-04-20T08:32:38.693Z,12.45
2023-04-20T08:35:07.654Z,14.45
2023-04-20T08:37:37.910Z,12.25
2023-04-20T08:40:06.859Z,12.55
2023-04-20T08:42:36.369Z,10.23
2023-04-20T08:45:05.489Z,9.38
2023-04-20T08:47:37.303Z,11.15
2023-04-20T08:50:06.412Z,12.82
2023-04-20T08:52:36.058Z,9.27
2023-04-20T08:55:04.639Z,9.05
2023-04-20T08:57:34.399Z,8.23
2023-04-20T09:00:05.964Z,15.77
2023-04-20T09:02:48.805Z,18.80
2023-04-20T09:05:24.559Z,16.27
2023-04-20T09:07:53.843Z,19.38
2023-04-20T09:10:24.401Z,19.45
2023-04-20T09:12:53.539Z,19.90
2023-04-20T09:15:29.109Z,17.73
2023-04-20T09:20:33.920Z,18.02
2023-04-20T09:23:19.594Z,21.02
2023-04-20T09:25:53.352Z,17.00
2023-04-20T09:28:21.901Z,19.85
2023-04-20T09:30:51.866Z,20.83
2023-04-20T09:33:20.269Z,17.85
2023-04-20T09:35:48.408Z,15.52
2023-04-20T09:38:17.390Z,13.57
2023-04-20T09:40:45.450Z,14.32
2023-04-20T09:43:24.410Z,14.77
2023-04-20T09:45:52.987Z,10.25
2023-04-20T09:48:22.113Z,10.70
2023-04-20T09:50:51.552Z,8.23
2023-04-20T09:53:20.924Z,9.63
2023-04-20T09:55:50.221Z,10.13
2023-04-20T09:58:21.072Z,9.98
2023-04-20T10:00:50.039Z,10.65
2023-04-20T10:03:22.679Z,9.02
2023-04-20T10:05:52.995Z,13.68
2023-04-20T10:08:24.581Z,9.43
2023-04-20T10:10:52.958Z,10.00
2023-04-20T10:13:23.556Z,10.75
2023-04-20T10:15:51.597Z,11.30
2023-04-20T10:18:25.215Z,10.38
2023-04-20T10:21:06.146Z,7.07
2023-04-20T10:23:34.600Z,12.90
2023-04-20T10:26:04.036Z,10.55
2023-04-20T10:28:43.303Z,13.07
2023-04-20T10:31:14.172Z,11.63
2023-04-20T10:33:52.656Z,14.45
2023-04-20T10:36:32.612Z,13.20
2023-04-20T10:39:06.238Z,16.38
2023-04-20T10:41:34.113Z,13.05
2023-04-20T10:44:09.540Z,10.73
2023-04-20T10:46:37.830Z,13.85
2023-04-20T10:49:06.953Z,12.85
2023-04-20T10:51:35.039Z,11.57
2023-04-20T10:54:06.252Z,12.93
2023-04-20T10:56:42.690Z,13.80
2023-04-20T10:59:16.828Z,13.27
2023-04-20T11:01:46.961Z,10.80
2023-04-20T11:04:18.618Z,12.57
2023-04-20T11:06:48.683Z,14.27
2023-04-20T11:09:28.697Z,16.20
2023-04-20T11:12:12.511Z,13.50
2023-04-20T11:14:53.278Z,18.95
2023-04-20T11:17:31.774Z,24.92
2023-04-20T11:20:14.602Z,13.70
2023-04-20T11:22:43.896Z,16.20
2023-04-20T11:25:13.155Z,19.30
2023-04-20T11:27:42.446Z,19.02
2023-04-20T11:30:10.999Z,17.98
2023-04-20T11:32:39.529Z,16.63
2023-04-20T11:35:11.407Z,17.92
2023-04-20T11:37:51.702Z,14.65
2023-04-20T11:40:21.569Z,14.23
2023-04-20T11:42:49.370Z,14.25
2023-04-20T11:45:18.206Z,15.68
2023-04-20T11:47:47.582Z,19.33
2023-04-20T11:50:16.043Z,18.52
2023-04-20T11:52:44.250Z,12.15
2023-04-20T11:55:12.876Z,14.70
2023-04-20T11:57:40.869Z,16.25
2023-04-20T12:00:09.735Z,19.25
2023-04-20T12:02:43.545Z,16.10
2023-04-20T12:05:12.246Z,15.43
2023-04-20T12:07:40.286Z,13.05
2023-04-20T12:10:09.334Z,13.43
2023-04-20T12:12:38.692Z,14.68
2023-04-20T12:15:07.848Z,11.88
2023-04-20T12:17:35.935Z,18.30
2023-04-20T12:20:09.066Z,13.82
2023-04-20T12:22:37.002Z,13.15
2023-04-20T12:25:06.843Z,13.00
2023-04-20T12:27:34.754Z,13.45
2023-04-20T12:30:04.487Z,17.17
2023-04-20T12:32:34.707Z,22.02
2023-04-20T12:35:03.128Z,17.98
2023-04-20T12:37:32.518Z,14.32
2023-04-20T12:40:01.025Z,13.93
2023-04-20T12:42:31.179Z,15.38
2023-04-20T12:44:59.587Z,21.50
2023-04-20T12:47:27.623Z,11.35
2023-04-20T12:49:56.508Z,16.27
2023-04-20T12:52:24.459Z,15.55
2023-04-20T12:54:52.955Z,18.00
2023-04-20T12:57:20.938Z,15.07
2023-04-20T12:59:49.575Z,17.15
2023-04-20T13:02:18.910Z,15.55
2023-04-20T13:04:47.353Z,19.83
2023-04-20T13:07:15.377Z,18.48
2023-04-20T13:09:44.038Z,16.30
2023-04-20T13:12:12.809Z,21.92
2023-04-20T13:14:41.279Z,18.58
2023-04-20T13:17:09.340Z,9.85
2023-04-20T13:19:37.546Z,9.52
2023-04-20T13:22:05.575Z,13.95
2023-04-20T13:24:33.822Z,16.33
2023-04-20T13:27:02.095Z,13.90
2023-04-20T13:29:30.609Z,11.13
2023-04-20T13:31:58.766Z,13.77
2023-04-20T13:34:27.051Z,10.18
2023-04-20T13:36:55.067Z,11.45
2023-04-20T13:39:24.261Z,10.95
2023-04-20T13:41:52.173Z,12.15
2023-04-20T13:44:21.083Z,12.10
2023-04-20T13:46:49.349Z,11.35
2023-04-20T13:49:18.032Z,10.90
2023-04-20T13:51:46.108Z,14.80
2023-04-20T13:54:14.365Z,9.68
2023-04-20T13:56:42.262Z,11.02
2023-04-20T13:59:10.873Z,11.25
2023-04-20T14:01:39.319Z,12.35
2023-04-20T14:04:10.288Z,8.70
2023-04-20T14:06:38.670Z,8.15
2023-04-20T14:09:07.490Z,8.32
2023-04-20T14:11:35.461Z,9.30
2023-04-20T14:14:04.314Z,12.05
2023-04-20T14:16:32.486Z,12.85
2023-04-20T14:19:01.185Z,12.55
2023-04-20T14:21:29.179Z,9.15
2023-04-20T14:23:57.488Z,9.38
2023-04-20T14:26:27.789Z,9.63
2023-04-20T14:28:56.304Z,13.00
2023-04-20T14:31:24.318Z,6.05
2023-04-20T14:33:52.472Z,5.32
2023-04-20T14:36:20.691Z,6.95
2023-04-20T14:38:48.845Z,5.45
2023-04-20T14:41:17.582Z,9.70
2023-04-20T14:43:45.924Z,8.02
2023-04-20T14:46:13.951Z,7.90
2023-04-20T14:48:42.206Z,12.82
2023-04-20T14:51:10.157Z,12.18
2023-04-20T14:53:38.562Z,10.10
2023-04-20T14:56:06.919Z,15.23
2023-04-20T14:58:36.443Z,12.27
2023-04-20T15:01:04.999Z,15.85
2023-04-20T15:03:33.430Z,12.18
2023-04-20T15:06:02.579Z,13.70
2023-04-20T15:08:30.940Z,15.45
2023-04-20T15:10:59.090Z,12.13
2023-04-20T15:13:27.442Z,16.23
2023-04-20T15:15:55.608Z,20.42
2023-04-20T15:18:24.139Z,18.50
2023-04-20T15:20:53.063Z,14.45
2023-04-20T15:23:22.479Z,19.75
2023-04-20T15:25:50.771Z,18.55
2023-04-20T15:28:19.097Z,16.50
2023-04-20T15:30:47.310Z,18.38
2023-04-20T15:33:15.767Z,29.45
2023-04-20T15:35:43.749Z,17.48
2023-04-20T15:38:12.169Z,18.15
2023-04-20T15:40:40.303Z,16.58
2023-04-20T15:43:08.822Z,19.67
2023-04-20T15:45:38.533Z,16.98
2023-04-20T15:48:09.206Z,19.52
2023-04-20T15:50:37.516Z,20.15
2023-04-20T15:53:05.797Z,15.77
2023-04-20T15:55:35.968Z,17.92
2023-04-20T15:58:04.288Z,14.55
2023-04-20T16:00:32.288Z,10.68
2023-04-20T16:03:02.023Z,15.10
2023-04-20T16:05:30.187Z,13.55
2023-04-20T16:07:58.522Z,11.82
2023-04-20T16:10:29.852Z,11.57
2023-04-20T16:12:58.319Z,9.65
2023-04-20T16:15:26.620Z,13.02
2023-04-20T16:17:55.236Z,9.15
2023-04-20T16:20:23.307Z,14.07
2023-04-20T16:22:51.723Z,9.93
2023-04-20T16:25:23.305Z,12.70
2023-04-20T16:27:51.926Z,12.70
2023-04-20T16:30:19.950Z,12.85
2023-04-20T16:32:48.319Z,10.65
2023-04-20T16:35:16.312Z,14.18
2023-04-20T16:37:45.331Z,11.55
2023-04-20T16:40:13.266Z,12.52
2023-04-20T16:42:41.670Z,18.15
2023-04-20T16:45:10.424Z,15.57
2023-04-20T16:47:39.807Z,17.45
2023-04-20T16:50:08.247Z,20.50
2023-04-20T16:52:36.777Z,14.77
2023-04-20T16:55:05.568Z,17.60
2023-04-20T16:57:33.776Z,24.83
2023-04-20T17:00:01.717Z,15.77
2023-04-20T17:02:34.779Z,19.00
2023-04-20T17:05:03.207Z,23.80
2023-04-20T17:07:33.947Z,23.33
2023-04-20T17:10:01.840Z,14.77
2023-04-20T17:12:32.239Z,17.70
2023-04-20T17:15:01.083Z,19.70
2023-04-20T17:17:29.665Z,20.77
2023-04-20T17:19:57.650Z,17.45
2023-04-20T17:22:28.757Z,19.63
2023-04-20T17:24:56.701Z,18.92
2023-04-20T17:27:24.963Z,20.90
2023-04-20T17:29:52.933Z,16.20
2023-04-20T17:32:21.311Z,22.98
2023-04-20T17:34:51.598Z,15.45
2023-04-20T17:37:20.851Z,19.70
2023-04-20T17:39:48.932Z,18.92
2023-04-20T17:42:18.023Z,20.13
2023-04-20T17:44:46.125Z,19.75
2023-04-20T17:47:15.221Z,23.27
2023-04-20T17:49:43.687Z,24.80
2023-04-20T17:52:15.429Z,27.13
2023-04-20T17:54:43.589Z,25.52
2023-04-20T17:57:11.854Z,29.85
2023-04-20T17:59:39.885Z,19.38
2023-04-20T18:02:09.538Z,22.65
2023-04-20T18:04:39.292Z,23.95
2023-04-20T18:07:07.949Z,27.38
2023-04-20T18:09:35.793Z,25.23
2023-04-20T18:12:04.188Z,24.95
2023-04-20T18:14:32.374Z,25.38
2023-04-20T18:17:00.881Z,28.02
2023-04-20T18:19:29.697Z,15.90
2023-04-20T18:21:58.090Z,22.60
2023-04-20T18:24:26.106Z,16.33
2023-04-20T18:26:54.461Z,19.23
2023-04-20T18:29:22.567Z,14.07
2023-04-20T18:31:51.422Z,12.80
2023-04-20T18:34:19.598Z,14.15
2023-04-20T18:36:48.527Z,13.70
2023-04-20T18:39:16.585Z,12.18
2023-04-20T18:41:44.765Z,9.13
2023-04-20T18:44:12.958Z,22.38
2023-04-20T18:46:42.466Z,9.88
2023-04-20T18:49:11.706Z,14.85
2023-04-20T18:51:40.506Z,11.43
2023-04-20T18:54:08.456Z,36.17
2023-04-20T18:56:38.884Z,19.85
2023-04-20T18:59:08.823Z,11.25
2023-04-20T19:01:40.890Z,11.85
2023-04-20T19:04:09.209Z,11.02
2023-04-20T19:06:42.445Z,12.80
2023-04-20T19:09:11.824Z,9.20
2023-04-20T19:11:40.405Z,6.15
2023-04-20T19:14:08.587Z,8.43
2023-04-20T19:16:37.444Z,10.52
2023-04-20T19:19:06.008Z,10.52
2023-04-20T19:21:35.258Z,8.48
2023-04-20T19:24:04.011Z,7.75
2023-04-20T19:26:32.382Z,10.82
2023-04-20T19:29:00.761Z,4.88
2023-04-20T19:31:34.285Z,10.90
2023-04-20T19:34:04.022Z,4.00
2023-04-20T19:36:32.991Z,7.75
2023-04-20T19:39:02.289Z,8.45
2023-04-20T19:41:30.843Z,4.72
2023-04-20T19:43:59.760Z,4.95
2023-04-20T19:46:31.122Z,7.63
2023-04-20T19:49:00.900Z,7.68
2023-04-20T19:51:29.677Z,2.72
2023-04-20T19:53:59.809Z,6.78
2023-04-20T19:56:28.203Z,5.63
2023-04-20T19:58:56.196Z,7.43
2023-04-20T20:01:24.664Z,4.15
2023-04-20T20:03:52.934Z,5.55
2023-04-20T20:06:22.032Z,5.15
2023-04-20T20:08:50.288Z,4.95
2023-04-20T20:11:19.077Z,7.75
2023-04-20T20:13:47.020Z,7.95
2023-04-20T20:16:16.698Z,5.25
2023-04-20T20:18:45.240Z,6.40
2023-04-20T20:21:13.398Z,3.30
2023-04-20T20:23:41.475Z,4.03
2023-04-20T20:26:09.692Z,5.72
2023-04-20T20:28:37.589Z,3.70
2023-04-20T20:31:06.012Z,3.97
2023-04-20T20:33:33.980Z,5.10
2023-04-20T20:36:04.561Z,6.85
2023-04-20T20:38:33.209Z,4.75
2023-04-20T20:41:02.077Z,11.10
2023-04-20T20:43:31.774Z,6.53
2023-04-20T20:46:00.147Z,5.32
2023-04-20T20:48:27.940Z,4.35
2023-04-20T20:50:56.494Z,3.40
2023-04-20T20:53:24.588Z,4.80
2023-04-20T20:55:56.738Z,3.55
2023-04-20T20:58:24.695Z,5.03
2023-04-20T21:00:54.341Z,3.45
2023-04-20T21:03:26.449Z,3.72
2023-04-20T21:05:55.011Z,4.55
2023-04-20T21:08:22.926Z,5.15
2023-04-20T21:10:51.318Z,3.63
2023-04-20T21:13:19.375Z,4.53
2023-04-20T21:15:47.530Z,4.03
2023-04-20T21:18:15.459Z,3.25
2023-04-20T21:20:43.901Z,2.83
2023-04-20T21:23:12.145Z,5.72
2023-04-20T21:25:40.640Z,4.93
2023-04-20T21:28:08.568Z,5.18
2023-04-20T21:30:37.229Z,5.72
2023-04-20T21:33:07.409Z,8.77
2023-04-20T21:35:36.942Z,8.73
2023-04-20T21:38:05.072Z,8.43
2023-04-20T21:40:35.084Z,17.73
2023-04-20T21:43:03.171Z,3.65
2023-04-20T21:45:31.397Z,4.45
2023-04-20T21:48:00.437Z,6.43
2023-04-20T21:50:28.959Z,5.40
2023-04-20T21:52:56.889Z,2.90
2023-04-20T21:55:25.263Z,6.15
2023-04-20T21:57:53.612Z,3.97
2023-04-20T22:00:22.277Z,3.28
2023-04-20T22:02:50.583Z,3.95
2023-04-20T22:05:19.217Z,4.85
2023-04-20T22:07:47.072Z,3.83
2023-04-20T22:10:15.608Z,4.28
2023-04-20T22:12:45.035Z,5.45
2023-04-20T22:15:14.718Z,3.42
2023-04-20T22:17:47.989Z,4.57
2023-04-20T22:20:19.545Z,3.03
2023-04-20T22:22:47.537Z,4.40
2023-04-20T22:25:15.879Z,3.72
2023-04-20T22:27:44.149Z,3.25
2023-04-20T22:30:12.801Z,2.42
2023-04-20T22:32:41.331Z,3.47
2023-04-20T22:35:10.454Z,5.07
2023-04-20T22:37:38.439Z,3.97
2023-04-20T22:40:07.929Z,2.45
2023-04-20T22:42:38.808Z,2.35
2023-04-20T22:45:10.823Z,2.70
2023-04-20T22:47:39.365Z,2.45
2023-04-20T22:50:10.895Z,3.30
2023-04-20T22:52:40.533Z,4.50
2023-04-20T22:55:10.759Z,4.13
2023-04-20T22:57:39.425Z,2.80
2023-04-20T23:00:11.038Z,5.82
2023-04-20T23:02:39.405Z,2.97
2023-04-20T23:05:07.977Z,2.55
2023-04-20T23:07:36.223Z,3.30
2023-04-20T23:10:06.413Z,3.30
2023-04-20T23:12:34.248Z,3.50
2023-04-20T23:15:02.712Z,3.00
2023-04-20T23:17:34.253Z,3.97
2023-04-20T23:20:02.498Z,5.07
2023-04-20T23:22:32.023Z,3.90
2023-04-20T23:25:00.368Z,4.95
2023-04-20T23:27:28.227Z,3.13
2023-04-20T23:29:56.438Z,4.47
2023-04-20T23:32:24.956Z,3.35
2023-04-20T23:34:53.216Z,2.25
2023-04-20T23:37:21.471Z,4.22
2023-04-20T23:39:49.682Z,3.38
2023-04-20T23:42:17.512Z,4.78
2023-04-20T23:44:46.101Z,2.90
2023-04-20T23:47:15.833Z,3.35
2023-04-20T23:49:44.078Z,3.30
2023-04-20T23:52:12.055Z,5.53
2023-04-20T23:54:40.286Z,4.10
2023-04-20T23:57:08.360Z,3.95
2023-04-20T23:59:36.599Z,4.75
